sensor_id;sensor_type;location;lat;lon;timestamp;P1;durP1;ratioP1;P2;durP2;ratioP2
2854;SDS011;1435;49.472;10.940;2022-10-22T00:04:58;7.60;;;6.33;;
2854;SDS011;1435;49.472;10.940;2022-10-22T00:10:02;10.00;;;6.20;;
2854;SDS011;1435;49.472;10.940;2022-10-22T00:15:06;6.97;;;6.30;;
2854;SDS011;1435;49.472;10.940;2022-10-22T00:20:08;12.90;;;6.70;;
2854;SDS011;1435;49.472;10.940;2022-10-22T00:25:12;10.47;;;6.70;;
2854;SDS011;1435;49.472;10.940;2022-10-22T00:30:13;6.43;;;5.83;;
2854;SDS011;1435;49.472;10.940;2022-10-22T00:35:15;12.43;;;6.90;;
2854;SDS011;1435;49.472;10.940;2022-10-22T00:40:19;7.73;;;6.00;;
2854;SDS011;1435;49.472;10.940;2022-10-22T00:45:22;6.77;;;6.07;;
2854;SDS011;1435;49.472;10.940;2022-10-22T00:50:26;8.70;;;6.40;;
2854;SDS011;1435;49.472;10.940;2022-10-22T00:55:33;9.63;;;5.70;;
2854;SDS011;1435;49.472;10.940;2022-10-22T01:00:35;7.73;;;4.80;;
2854;SDS011;1435;49.472;10.940;2022-10-22T01:05:39;6.03;;;4.23;;
2854;SDS011;1435;49.472;10.940;2022-10-22T01:10:47;5.10;;;3.83;;
2854;SDS011;1435;49.472;10.940;2022-10-22T01:15:58;5.80;;;3.50;;
2854;SDS011;1435;49.472;10.940;2022-10-22T01:21:12;3.50;;;3.30;;
2854;SDS011;1435;49.472;10.940;2022-10-22T01:26:23;3.47;;;2.70;;
2854;SDS011;1435;49.472;10.940;2022-10-22T01:31:35;4.70;;;2.63;;
2854;SDS011;1435;49.472;10.940;2022-10-22T01:36:43;4.37;;;2.30;;
2854;SDS011;1435;49.472;10.940;2022-10-22T01:41:46;2.97;;;2.23;;
2854;SDS011;1435;49.472;10.940;2022-10-22T01:46:49;3.20;;;2.50;;
2854;SDS011;1435;49.472;10.940;2022-10-22T01:51:58;2.23;;;1.93;;
2854;SDS011;1435;49.472;10.940;2022-10-22T01:57:12;3.40;;;1.97;;
2854;SDS011;1435;49.472;10.940;2022-10-22T02:02:25;2.00;;;1.57;;
2854;SDS011;1435;49.472;10.940;2022-10-22T02:07:36;3.40;;;1.63;;
2854;SDS011;1435;49.472;10.940;2022-10-22T02:12:41;2.37;;;2.17;;
2854;SDS011;1435;49.472;10.940;2022-10-22T02:17:47;1.53;;;1.30;;
2854;SDS011;1435;49.472;10.940;2022-10-22T02:22:50;1.50;;;1.40;;
2854;SDS011;1435;49.472;10.940;2022-10-22T02:27:55;2.40;;;1.20;;
2854;SDS011;1435;49.472;10.940;2022-10-22T02:33:03;1.90;;;1.10;;
2854;SDS011;1435;49.472;10.940;2022-10-22T02:38:10;2.13;;;1.13;;
2854;SDS011;1435;49.472;10.940;2022-10-22T02:43:13;3.47;;;0.90;;
2854;SDS011;1435;49.472;10.940;2022-10-22T02:48:16;1.40;;;1.10;;
2854;SDS011;1435;49.472;10.940;2022-10-22T02:53:18;2.00;;;1.30;;
2854;SDS011;1435;49.472;10.940;2022-10-22T02:58:20;2.57;;;1.33;;
2854;SDS011;1435;49.472;10.940;2022-10-22T03:03:23;3.00;;;1.40;;
2854;SDS011;1435;49.472;10.940;2022-10-22T03:08:25;2.40;;;1.10;;
2854;SDS011;1435;49.472;10.940;2022-10-22T03:13:26;1.63;;;1.30;;
2854;SDS011;1435;49.472;10.940;2022-10-22T03:18:30;1.50;;;1.03;;
2854;SDS011;1435;49.472;10.940;2022-10-22T03:23:31;1.70;;;1.10;;
2854;SDS011;1435;49.472;10.940;2022-10-22T03:28:34;5.97;;;1.20;;
2854;SDS011;1435;49.472;10.940;2022-10-22T03:33:38;1.50;;;1.13;;
2854;SDS011;1435;49.472;10.940;2022-10-22T03:38:40;1.77;;;1.20;;
2854;SDS011;1435;49.472;10.940;2022-10-22T03:43:42;1.00;;;1.00;;
2854;SDS011;1435;49.472;10.940;2022-10-22T03:48:50;2.60;;;0.90;;
2854;SDS011;1435;49.472;10.940;2022-10-22T03:53:51;1.47;;;1.00;;
2854;SDS011;1435;49.472;10.940;2022-10-22T03:58:54;1.37;;;0.80;;
2854;SDS011;1435;49.472;10.940;2022-10-22T04:03:58;3.83;;;1.00;;
2854;SDS011;1435;49.472;10.940;2022-10-22T04:09:00;1.43;;;0.90;;
2854;SDS011;1435;49.472;10.940;2022-10-22T04:14:02;1.13;;;1.00;;
2854;SDS011;1435;49.472;10.940;2022-10-22T04:19:05;1.57;;;0.90;;
2854;SDS011;1435;49.472;10.940;2022-10-22T04:24:07;1.30;;;0.90;;
2854;SDS011;1435;49.472;10.940;2022-10-22T04:29:09;1.10;;;0.90;;
2854;SDS011;1435;49.472;10.940;2022-10-22T04:34:13;1.93;;;0.90;;
2854;SDS011;1435;49.472;10.940;2022-10-22T04:39:14;1.40;;;1.20;;
2854;SDS011;1435;49.472;10.940;2022-10-22T04:44:16;1.00;;;0.90;;
2854;SDS011;1435;49.472;10.940;2022-10-22T04:49:19;1.20;;;0.90;;
2854;SDS011;1435;49.472;10.940;2022-10-22T04:54:21;1.13;;;0.93;;
2854;SDS011;1435;49.472;10.940;2022-10-22T04:59:23;4.00;;;1.00;;
2854;SDS011;1435;49.472;10.940;2022-10-22T05:04:26;8.63;;;1.33;;
2854;SDS011;1435;49.472;10.940;2022-10-22T05:09:28;1.57;;;1.20;;
2854;SDS011;1435;49.472;10.940;2022-10-22T05:14:29;1.20;;;1.00;;
2854;SDS011;1435;49.472;10.940;2022-10-22T05:19:33;1.43;;;1.20;;
2854;SDS011;1435;49.472;10.940;2022-10-22T05:24:35;4.37;;;1.37;;
2854;SDS011;1435;49.472;10.940;2022-10-22T05:29:37;6.13;;;1.37;;
2854;SDS011;1435;49.472;10.940;2022-10-22T05:34:40;3.33;;;1.60;;
2854;SDS011;1435;49.472;10.940;2022-10-22T05:39:42;4.00;;;1.63;;
2854;SDS011;1435;49.472;10.940;2022-10-22T05:44:44;1.47;;;1.33;;
2854;SDS011;1435;49.472;10.940;2022-10-22T05:49:47;1.13;;;1.10;;
2854;SDS011;1435;49.472;10.940;2022-10-22T05:54:49;2.63;;;1.07;;
2854;SDS011;1435;49.472;10.940;2022-10-22T05:59:51;2.20;;;1.50;;
2854;SDS011;1435;49.472;10.940;2022-10-22T06:04:54;2.00;;;1.70;;
2854;SDS011;1435;49.472;10.940;2022-10-22T06:09:55;3.80;;;2.50;;
2854;SDS011;1435;49.472;10.940;2022-10-22T06:14:57;3.13;;;1.70;;
2854;SDS011;1435;49.472;10.940;2022-10-22T06:20:00;1.73;;;1.10;;
2854;SDS011;1435;49.472;10.940;2022-10-22T06:25:02;3.37;;;1.57;;
2854;SDS011;1435;49.472;10.940;2022-10-22T06:30:05;2.57;;;0.93;;
2854;SDS011;1435;49.472;10.940;2022-10-22T06:35:09;3.83;;;1.30;;
2854;SDS011;1435;49.472;10.940;2022-10-22T06:40:11;3.87;;;1.40;;
2854;SDS011;1435;49.472;10.940;2022-10-22T06:45:13;1.63;;;1.53;;
2854;SDS011;1435;49.472;10.940;2022-10-22T06:50:17;1.27;;;1.00;;
2854;SDS011;1435;49.472;10.940;2022-10-22T06:55:18;2.30;;;1.53;;
2854;SDS011;1435;49.472;10.940;2022-10-22T07:00:20;2.63;;;1.53;;
2854;SDS011;1435;49.472;10.940;2022-10-22T07:05:23;2.50;;;2.00;;
2854;SDS011;1435;49.472;10.940;2022-10-22T07:10:25;3.40;;;3.00;;
2854;SDS011;1435;49.472;10.940;2022-10-22T07:15:27;3.13;;;1.90;;
2854;SDS011;1435;49.472;10.940;2022-10-22T07:20:30;6.03;;;2.97;;
2854;SDS011;1435;49.472;10.940;2022-10-22T07:25:32;5.70;;;2.40;;
2854;SDS011;1435;49.472;10.940;2022-10-22T07:30:34;5.47;;;4.47;;
2854;SDS011;1435;49.472;10.940;2022-10-22T07:35:39;3.77;;;3.47;;
2854;SDS011;1435;49.472;10.940;2022-10-22T07:40:42;2.90;;;2.20;;
2854;SDS011;1435;49.472;10.940;2022-10-22T07:45:44;4.60;;;1.97;;
2854;SDS011;1435;49.472;10.940;2022-10-22T07:50:47;3.10;;;2.60;;
2854;SDS011;1435;49.472;10.940;2022-10-22T07:55:49;3.20;;;2.77;;
2854;SDS011;1435;49.472;10.940;2022-10-22T08:00:53;1.43;;;1.30;;
2854;SDS011;1435;49.472;10.940;2022-10-22T08:05:58;1.73;;;1.63;;
2854;SDS011;1435;49.472;10.940;2022-10-22T08:11:01;3.00;;;2.50;;
2854;SDS011;1435;49.472;10.940;2022-10-22T08:16:03;2.53;;;1.40;;
2854;SDS011;1435;49.472;10.940;2022-10-22T08:21:07;1.30;;;1.13;;
2854;SDS011;1435;49.472;10.940;2022-10-22T08:26:10;1.17;;;1.00;;
2854;SDS011;1435;49.472;10.940;2022-10-22T08:31:12;1.80;;;1.33;;
2854;SDS011;1435;49.472;10.940;2022-10-22T08:36:16;1.73;;;1.07;;
2854;SDS011;1435;49.472;10.940;2022-10-22T08:41:18;1.30;;;0.90;;
2854;SDS011;1435;49.472;10.940;2022-10-22T08:46:25;1.10;;;0.70;;
2854;SDS011;1435;49.472;10.940;2022-10-22T08:51:42;0.97;;;0.97;;
2854;SDS011;1435;49.472;10.940;2022-10-22T08:56:44;1.90;;;1.10;;
2854;SDS011;1435;49.472;10.940;2022-10-22T09:01:56;1.40;;;0.67;;
2854;SDS011;1435;49.472;10.940;2022-10-22T09:06:59;2.27;;;1.33;;
2854;SDS011;1435;49.472;10.940;2022-10-22T09:12:04;1.60;;;0.63;;
2854;SDS011;1435;49.472;10.940;2022-10-22T09:17:11;3.73;;;0.73;;
2854;SDS011;1435;49.472;10.940;2022-10-22T09:22:19;1.13;;;0.80;;
2854;SDS011;1435;49.472;10.940;2022-10-22T09:27:28;1.40;;;1.13;;
2854;SDS011;1435;49.472;10.940;2022-10-22T09:32:31;4.87;;;1.00;;
2854;SDS011;1435;49.472;10.940;2022-10-22T09:37:34;1.10;;;0.80;;
2854;SDS011;1435;49.472;10.940;2022-10-22T09:42:36;0.73;;;0.60;;
2854;SDS011;1435;49.472;10.940;2022-10-22T09:47:39;1.83;;;0.80;;
2854;SDS011;1435;49.472;10.940;2022-10-22T09:52:43;1.17;;;0.60;;
2854;SDS011;1435;49.472;10.940;2022-10-22T09:57:47;2.73;;;1.13;;
2854;SDS011;1435;49.472;10.940;2022-10-22T10:02:54;2.80;;;0.90;;
2854;SDS011;1435;49.472;10.940;2022-10-22T10:07:58;2.20;;;0.80;;
2854;SDS011;1435;49.472;10.940;2022-10-22T10:13:16;2.17;;;0.70;;
2854;SDS011;1435;49.472;10.940;2022-10-22T10:18:33;0.70;;;0.70;;
2854;SDS011;1435;49.472;10.940;2022-10-22T10:23:51;1.60;;;0.70;;
2854;SDS011;1435;49.472;10.940;2022-10-22T10:29:01;2.07;;;0.80;;
2854;SDS011;1435;49.472;10.940;2022-10-22T10:34:17;0.80;;;0.60;;
2854;SDS011;1435;49.472;10.940;2022-10-22T10:39:32;0.67;;;0.60;;
2854;SDS011;1435;49.472;10.940;2022-10-22T10:44:45;1.27;;;0.80;;
2854;SDS011;1435;49.472;10.940;2022-10-22T10:49:54;1.33;;;0.50;;
2854;SDS011;1435;49.472;10.940;2022-10-22T10:55:14;1.20;;;0.70;;
2854;SDS011;1435;49.472;10.940;2022-10-22T11:00:22;1.13;;;0.83;;
2854;SDS011;1435;49.472;10.940;2022-10-22T11:05:26;2.07;;;0.93;;
2854;SDS011;1435;49.472;10.940;2022-10-22T11:10:34;0.90;;;0.67;;
2854;SDS011;1435;49.472;10.940;2022-10-22T11:15:39;1.17;;;0.70;;
2854;SDS011;1435;49.472;10.940;2022-10-22T11:20:49;1.37;;;0.70;;
2854;SDS011;1435;49.472;10.940;2022-10-22T11:25:57;1.90;;;0.63;;
2854;SDS011;1435;49.472;10.940;2022-10-22T11:31:02;1.10;;;0.60;;
2854;SDS011;1435;49.472;10.940;2022-10-22T11:36:06;4.37;;;1.00;;
2854;SDS011;1435;49.472;10.940;2022-10-22T11:41:11;3.03;;;1.10;;
2854;SDS011;1435;49.472;10.940;2022-10-22T11:46:24;1.87;;;0.63;;
2854;SDS011;1435;49.472;10.940;2022-10-22T11:51:31;2.77;;;0.80;;
2854;SDS011;1435;49.472;10.940;2022-10-22T11:56:38;1.97;;;0.90;;
2854;SDS011;1435;49.472;10.940;2022-10-22T12:01:41;1.77;;;0.60;;
2854;SDS011;1435;49.472;10.940;2022-10-22T12:06:55;2.20;;;0.80;;
2854;SDS011;1435;49.472;10.940;2022-10-22T12:12:09;1.80;;;0.80;;
2854;SDS011;1435;49.472;10.940;2022-10-22T12:17:14;2.10;;;0.60;;
2854;SDS011;1435;49.472;10.940;2022-10-22T12:22:19;3.13;;;0.70;;
2854;SDS011;1435;49.472;10.940;2022-10-22T12:27:24;2.50;;;0.80;;
2854;SDS011;1435;49.472;10.940;2022-10-22T12:32:31;1.87;;;0.70;;
2854;SDS011;1435;49.472;10.940;2022-10-22T12:37:36;3.60;;;0.87;;
2854;SDS011;1435;49.472;10.940;2022-10-22T12:42:39;0.70;;;0.60;;
2854;SDS011;1435;49.472;10.940;2022-10-22T12:47:49;0.70;;;0.60;;
2854;SDS011;1435;49.472;10.940;2022-10-22T12:52:52;2.10;;;0.97;;
2854;SDS011;1435;49.472;10.940;2022-10-22T12:57:56;1.07;;;0.80;;
2854;SDS011;1435;49.472;10.940;2022-10-22T13:02:59;2.00;;;0.87;;
2854;SDS011;1435;49.472;10.940;2022-10-22T13:08:08;2.57;;;0.83;;
2854;SDS011;1435;49.472;10.940;2022-10-22T13:18:33;2.03;;;0.60;;
2854;SDS011;1435;49.472;10.940;2022-10-22T13:23:35;1.20;;;0.80;;
2854;SDS011;1435;49.472;10.940;2022-10-22T13:28:39;1.07;;;0.60;;
2854;SDS011;1435;49.472;10.940;2022-10-22T13:33:41;1.43;;;0.70;;
2854;SDS011;1435;49.472;10.940;2022-10-22T13:38:45;1.73;;;0.90;;
2854;SDS011;1435;49.472;10.940;2022-10-22T13:43:48;0.70;;;0.60;;
2854;SDS011;1435;49.472;10.940;2022-10-22T13:48:51;0.70;;;0.70;;
2854;SDS011;1435;49.472;10.940;2022-10-22T13:53:55;0.93;;;0.60;;
2854;SDS011;1435;49.472;10.940;2022-10-22T13:58:58;1.10;;;0.47;;
2854;SDS011;1435;49.472;10.940;2022-10-22T14:04:00;1.13;;;0.50;;
2854;SDS011;1435;49.472;10.940;2022-10-22T14:09:06;3.80;;;0.60;;
2854;SDS011;1435;49.472;10.940;2022-10-22T14:14:13;2.37;;;0.70;;
2854;SDS011;1435;49.472;10.940;2022-10-22T14:19:16;1.90;;;0.60;;
2854;SDS011;1435;49.472;10.940;2022-10-22T14:24:18;1.80;;;0.50;;
2854;SDS011;1435;49.472;10.940;2022-10-22T14:29:21;1.23;;;0.70;;
2854;SDS011;1435;49.472;10.940;2022-10-22T14:34:23;1.37;;;0.60;;
2854;SDS011;1435;49.472;10.940;2022-10-22T14:39:25;0.90;;;0.60;;
2854;SDS011;1435;49.472;10.940;2022-10-22T14:44:28;0.90;;;0.63;;
2854;SDS011;1435;49.472;10.940;2022-10-22T14:49:29;2.10;;;1.63;;
2854;SDS011;1435;49.472;10.940;2022-10-22T14:54:31;2.17;;;1.07;;
2854;SDS011;1435;49.472;10.940;2022-10-22T14:59:35;4.03;;;1.07;;
2854;SDS011;1435;49.472;10.940;2022-10-22T15:04:37;2.57;;;0.60;;
2854;SDS011;1435;49.472;10.940;2022-10-22T15:09:39;3.53;;;1.10;;
2854;SDS011;1435;49.472;10.940;2022-10-22T15:14:42;2.17;;;0.90;;
2854;SDS011;1435;49.472;10.940;2022-10-22T15:19:44;2.27;;;0.90;;
2854;SDS011;1435;49.472;10.940;2022-10-22T15:24:46;6.20;;;1.03;;
2854;SDS011;1435;49.472;10.940;2022-10-22T15:29:50;5.07;;;1.20;;
2854;SDS011;1435;49.472;10.940;2022-10-22T15:34:51;3.80;;;1.30;;
2854;SDS011;1435;49.472;10.940;2022-10-22T15:39:54;4.47;;;1.10;;
2854;SDS011;1435;49.472;10.940;2022-10-22T15:44:57;3.27;;;0.80;;
2854;SDS011;1435;49.472;10.940;2022-10-22T15:50:01;2.73;;;1.00;;
2854;SDS011;1435;49.472;10.940;2022-10-22T15:55:03;2.73;;;1.00;;
2854;SDS011;1435;49.472;10.940;2022-10-22T16:00:11;4.53;;;1.50;;
2854;SDS011;1435;49.472;10.940;2022-10-22T16:05:13;2.73;;;1.10;;
2854;SDS011;1435;49.472;10.940;2022-10-22T16:10:15;3.07;;;1.10;;
2854;SDS011;1435;49.472;10.940;2022-10-22T16:15:18;8.30;;;1.30;;
2854;SDS011;1435;49.472;10.940;2022-10-22T16:20:20;8.23;;;1.10;;
2854;SDS011;1435;49.472;10.940;2022-10-22T16:25:22;5.43;;;1.00;;
2854;SDS011;1435;49.472;10.940;2022-10-22T16:30:26;8.17;;;1.30;;
2854;SDS011;1435;49.472;10.940;2022-10-22T16:35:27;3.57;;;1.00;;
2854;SDS011;1435;49.472;10.940;2022-10-22T16:40:30;5.80;;;1.33;;
2854;SDS011;1435;49.472;10.940;2022-10-22T16:45:33;2.83;;;0.97;;
2854;SDS011;1435;49.472;10.940;2022-10-22T16:50:37;1.53;;;0.70;;
2854;SDS011;1435;49.472;10.940;2022-10-22T16:55:39;2.30;;;1.17;;
2854;SDS011;1435;49.472;10.940;2022-10-22T17:00:42;5.90;;;1.20;;
2854;SDS011;1435;49.472;10.940;2022-10-22T17:05:44;3.70;;;1.10;;
2854;SDS011;1435;49.472;10.940;2022-10-22T17:10:46;2.53;;;1.00;;
2854;SDS011;1435;49.472;10.940;2022-10-22T17:15:49;2.73;;;1.00;;
2854;SDS011;1435;49.472;10.940;2022-10-22T17:20:51;5.23;;;1.50;;
2854;SDS011;1435;49.472;10.940;2022-10-22T17:25:56;5.90;;;1.00;;
2854;SDS011;1435;49.472;10.940;2022-10-22T17:31:05;1.93;;;0.90;;
2854;SDS011;1435;49.472;10.940;2022-10-22T17:36:08;3.47;;;1.33;;
2854;SDS011;1435;49.472;10.940;2022-10-22T17:41:14;4.57;;;1.23;;
2854;SDS011;1435;49.472;10.940;2022-10-22T17:46:20;1.40;;;1.17;;
2854;SDS011;1435;49.472;10.940;2022-10-22T17:51:24;4.63;;;1.30;;
2854;SDS011;1435;49.472;10.940;2022-10-22T17:56:28;4.93;;;1.20;;
2854;SDS011;1435;49.472;10.940;2022-10-22T18:01:32;6.77;;;1.80;;
2854;SDS011;1435;49.472;10.940;2022-10-22T18:06:36;5.03;;;1.60;;
2854;SDS011;1435;49.472;10.940;2022-10-22T18:11:38;5.50;;;1.97;;
2854;SDS011;1435;49.472;10.940;2022-10-22T18:16:41;1.13;;;1.00;;
2854;SDS011;1435;49.472;10.940;2022-10-22T18:21:43;2.50;;;1.13;;
2854;SDS011;1435;49.472;10.940;2022-10-22T18:26:45;4.57;;;1.37;;
2854;SDS011;1435;49.472;10.940;2022-10-22T18:31:48;5.93;;;1.80;;
2854;SDS011;1435;49.472;10.940;2022-10-22T18:36:50;6.40;;;2.03;;
2854;SDS011;1435;49.472;10.940;2022-10-22T18:41:52;3.70;;;1.80;;
2854;SDS011;1435;49.472;10.940;2022-10-22T18:46:55;3.10;;;1.70;;
2854;SDS011;1435;49.472;10.940;2022-10-22T18:51:56;6.23;;;2.57;;
2854;SDS011;1435;49.472;10.940;2022-10-22T18:56:58;10.70;;;1.97;;
2854;SDS011;1435;49.472;10.940;2022-10-22T19:02:02;6.60;;;2.23;;
2854;SDS011;1435;49.472;10.940;2022-10-22T19:07:04;4.53;;;2.40;;
2854;SDS011;1435;49.472;10.940;2022-10-22T19:12:06;2.13;;;1.93;;
2854;SDS011;1435;49.472;10.940;2022-10-22T19:17:09;2.90;;;2.37;;
2854;SDS011;1435;49.472;10.940;2022-10-22T19:22:12;3.10;;;2.50;;
2854;SDS011;1435;49.472;10.940;2022-10-22T19:27:15;3.50;;;2.27;;
2854;SDS011;1435;49.472;10.940;2022-10-22T19:32:18;2.77;;;2.30;;
2854;SDS011;1435;49.472;10.940;2022-10-22T19:37:20;5.63;;;2.53;;
2854;SDS011;1435;49.472;10.940;2022-10-22T19:42:22;6.67;;;3.30;;
2854;SDS011;1435;49.472;10.940;2022-10-22T19:47:25;8.63;;;3.53;;
2854;SDS011;1435;49.472;10.940;2022-10-22T19:52:28;3.10;;;2.80;;
2854;SDS011;1435;49.472;10.940;2022-10-22T19:57:30;5.73;;;3.60;;
2854;SDS011;1435;49.472;10.940;2022-10-22T20:02:33;5.00;;;2.97;;
2854;SDS011;1435;49.472;10.940;2022-10-22T20:07:37;3.50;;;2.80;;
2854;SDS011;1435;49.472;10.940;2022-10-22T20:12:38;6.67;;;2.60;;
2854;SDS011;1435;49.472;10.940;2022-10-22T20:17:41;3.97;;;3.00;;
2854;SDS011;1435;49.472;10.940;2022-10-22T20:22:43;3.63;;;2.33;;
2854;SDS011;1435;49.472;10.940;2022-10-22T20:27:45;8.10;;;2.47;;
2854;SDS011;1435;49.472;10.940;2022-10-22T20:32:48;6.07;;;3.47;;
2854;SDS011;1435;49.472;10.940;2022-10-22T20:37:50;4.13;;;2.60;;
2854;SDS011;1435;49.472;10.940;2022-10-22T20:42:52;4.70;;;2.60;;
2854;SDS011;1435;49.472;10.940;2022-10-22T20:47:55;4.77;;;2.97;;
2854;SDS011;1435;49.472;10.940;2022-10-22T20:52:57;3.70;;;1.93;;
2854;SDS011;1435;49.472;10.940;2022-10-22T20:57:59;3.73;;;2.60;;
2854;SDS011;1435;49.472;10.940;2022-10-22T21:03:02;3.20;;;2.47;;
2854;SDS011;1435;49.472;10.940;2022-10-22T21:08:04;4.50;;;1.60;;
2854;SDS011;1435;49.472;10.940;2022-10-22T21:13:07;2.67;;;2.47;;
2854;SDS011;1435;49.472;10.940;2022-10-22T21:18:11;4.03;;;2.50;;
2854;SDS011;1435;49.472;10.940;2022-10-22T21:23:12;4.13;;;2.53;;
2854;SDS011;1435;49.472;10.940;2022-10-22T21:28:14;4.40;;;3.50;;
2854;SDS011;1435;49.472;10.940;2022-10-22T21:33:19;3.37;;;2.80;;
2854;SDS011;1435;49.472;10.940;2022-10-22T21:38:21;3.53;;;3.23;;
2854;SDS011;1435;49.472;10.940;2022-10-22T21:43:24;4.03;;;3.63;;
2854;SDS011;1435;49.472;10.940;2022-10-22T21:48:27;7.70;;;3.20;;
2854;SDS011;1435;49.472;10.940;2022-10-22T21:53:29;5.93;;;4.37;;
2854;SDS011;1435;49.472;10.940;2022-10-22T21:58:32;4.17;;;3.77;;
2854;SDS011;1435;49.472;10.940;2022-10-22T22:03:35;3.83;;;3.40;;
2854;SDS011;1435;49.472;10.940;2022-10-22T22:08:37;3.77;;;3.27;;
2854;SDS011;1435;49.472;10.940;2022-10-22T22:13:39;5.07;;;3.57;;
2854;SDS011;1435;49.472;10.940;2022-10-22T22:18:43;7.63;;;3.53;;
2854;SDS011;1435;49.472;10.940;2022-10-22T22:23:45;3.93;;;2.57;;
2854;SDS011;1435;49.472;10.940;2022-10-22T22:28:48;5.13;;;3.00;;
2854;SDS011;1435;49.472;10.940;2022-10-22T22:33:56;3.03;;;2.73;;
2854;SDS011;1435;49.472;10.940;2022-10-22T22:38:58;3.07;;;2.87;;
2854;SDS011;1435;49.472;10.940;2022-10-22T22:44:00;2.10;;;2.00;;
2854;SDS011;1435;49.472;10.940;2022-10-22T22:49:03;4.43;;;4.03;;
2854;SDS011;1435;49.472;10.940;2022-10-22T22:54:05;5.10;;;3.40;;
2854;SDS011;1435;49.472;10.940;2022-10-22T22:59:07;3.97;;;3.57;;
2854;SDS011;1435;49.472;10.940;2022-10-22T23:04:12;3.70;;;2.73;;
2854;SDS011;1435;49.472;10.940;2022-10-22T23:09:18;3.40;;;3.10;;
2854;SDS011;1435;49.472;10.940;2022-10-22T23:14:20;4.27;;;2.93;;
2854;SDS011;1435;49.472;10.940;2022-10-22T23:19:23;7.07;;;3.67;;
2854;SDS011;1435;49.472;10.940;2022-10-22T23:24:26;3.57;;;3.27;;
2854;SDS011;1435;49.472;10.940;2022-10-22T23:29:29;3.67;;;2.90;;
2854;SDS011;1435;49.472;10.940;2022-10-22T23:34:34;4.40;;;4.00;;
2854;SDS011;1435;49.472;10.940;2022-10-22T23:39:36;6.00;;;4.30;;
2854;SDS011;1435;49.472;10.940;2022-10-22T23:44:38;4.87;;;3.63;;
2854;SDS011;1435;49.472;10.940;2022-10-22T23:49:41;7.60;;;4.43;;
2854;SDS011;1435;49.472;10.940;2022-10-22T23:54:43;3.77;;;3.43;;
2854;SDS011;1435;49.472;10.940;2022-10-22T23:59:44;3.70;;;3.37;;
